sensor_id;sensor_type;location;lat;lon;timestamp;temperature;humidity
27741;DHT22;15134;48.768;9.184;2023-07-20T00:00:53;22.60;92.20
27741;DHT22;15134;48.768;9.184;2023-07-20T00:03:20;22.50;92.20
27741;DHT22;15134;48.768;9.184;2023-07-20T00:05:49;22.50;92.00
27741;DHT22;15134;48.768;9.184;2023-07-20T00:08:16;22.50;91.70
27741;DHT22;15134;48.768;9.184;2023-07-20T00:10:42;22.40;91.70
27741;DHT22;15134;48.768;9.184;2023-07-20T00:13:08;22.30;91.70
27741;DHT22;15134;48.768;9.184;2023-07-20T00:15:34;22.30;91.60
27741;DHT22;15134;48.768;9.184;2023-07-20T00:17:59;22.30;91.60
27741;DHT22;15134;48.768;9.184;2023-07-20T00:20:25;22.20;91.20
27741;DHT22;15134;48.768;9.184;2023-07-20T00:22:51;22.20;91.40
27741;DHT22;15134;48.768;9.184;2023-07-20T00:25:18;22.20;91.30
27741;DHT22;15134;48.768;9.184;2023-07-20T00:27:44;22.20;90.70
27741;DHT22;15134;48.768;9.184;2023-07-20T00:30:10;22.20;90.70
27741;DHT22;15134;48.768;9.184;2023-07-20T00:32:36;22.10;90.70
27741;DHT22;15134;48.768;9.184;2023-07-20T00:35:01;22.00;90.80
27741;DHT22;15134;48.768;9.184;2023-07-20T00:37:28;22.00;90.90
27741;DHT22;15134;48.768;9.184;2023-07-20T00:39:54;21.90;91.10
27741;DHT22;15134;48.768;9.184;2023-07-20T00:42:20;22.00;91.20
27741;DHT22;15134;48.768;9.184;2023-07-20T00:44:46;22.00;91.10
27741;DHT22;15134;48.768;9.184;2023-07-20T00:47:11;22.00;91.00
27741;DHT22;15134;48.768;9.184;2023-07-20T00:49:38;22.00;90.90
27741;DHT22;15134;48.768;9.184;2023-07-20T00:52:06;21.90;91.00
27741;DHT22;15134;48.768;9.184;2023-07-20T00:54:32;21.90;91.20
27741;DHT22;15134;48.768;9.184;2023-07-20T00:57:01;21.90;91.00
27741;DHT22;15134;48.768;9.184;2023-07-20T00:59:27;21.90;91.00
27741;DHT22;15134;48.768;9.184;2023-07-20T01:01:55;21.80;91.00
27741;DHT22;15134;48.768;9.184;2023-07-20T01:04:20;21.80;91.20
27741;DHT22;15134;48.768;9.184;2023-07-20T01:06:53;21.80;91.00
27741;DHT22;15134;48.768;9.184;2023-07-20T01:09:32;21.70;91.30
27741;DHT22;15134;48.768;9.184;2023-07-20T01:12:07;21.70;91.30
27741;DHT22;15134;48.768;9.184;2023-07-20T01:14:34;21.60;91.40
27741;DHT22;15134;48.768;9.184;2023-07-20T01:17:01;21.60;91.60
27741;DHT22;15134;48.768;9.184;2023-07-20T01:19:27;21.60;91.60
27741;DHT22;15134;48.768;9.184;2023-07-20T01:22:21;21.60;91.60
27741;DHT22;15134;48.768;9.184;2023-07-20T01:24:56;21.50;91.60
27741;DHT22;15134;48.768;9.184;2023-07-20T01:27:44;21.50;91.90
27741;DHT22;15134;48.768;9.184;2023-07-20T01:32:58;21.50;91.90
27741;DHT22;15134;48.768;9.184;2023-07-20T01:35:28;21.50;92.10
27741;DHT22;15134;48.768;9.184;2023-07-20T01:37:55;21.40;92.00
27741;DHT22;15134;48.768;9.184;2023-07-20T01:40:22;21.40;92.00
27741;DHT22;15134;48.768;9.184;2023-07-20T01:42:52;21.40;92.40
27741;DHT22;15134;48.768;9.184;2023-07-20T01:45:19;21.30;92.40
27741;DHT22;15134;48.768;9.184;2023-07-20T01:47:44;21.30;92.40
27741;DHT22;15134;48.768;9.184;2023-07-20T01:50:10;21.30;92.50
27741;DHT22;15134;48.768;9.184;2023-07-20T01:52:36;21.30;92.60
27741;DHT22;15134;48.768;9.184;2023-07-20T01:55:03;21.30;92.70
27741;DHT22;15134;48.768;9.184;2023-07-20T01:57:31;21.30;92.80
27741;DHT22;15134;48.768;9.184;2023-07-20T01:59:57;21.20;92.90
27741;DHT22;15134;48.768;9.184;2023-07-20T02:02:26;21.20;93.00
27741;DHT22;15134;48.768;9.184;2023-07-20T02:04:52;21.10;93.30
27741;DHT22;15134;48.768;9.184;2023-07-20T02:07:17;21.10;93.50
27741;DHT22;15134;48.768;9.184;2023-07-20T02:09:43;21.10;93.50
27741;DHT22;15134;48.768;9.184;2023-07-20T02:12:09;21.00;93.50
27741;DHT22;15134;48.768;9.184;2023-07-20T02:14:35;21.00;93.50
27741;DHT22;15134;48.768;9.184;2023-07-20T02:17:00;21.00;93.40
27741;DHT22;15134;48.768;9.184;2023-07-20T02:19:29;20.90;93.50
27741;DHT22;15134;48.768;9.184;2023-07-20T02:21:55;20.90;93.60
27741;DHT22;15134;48.768;9.184;2023-07-20T02:24:21;20.80;93.80
27741;DHT22;15134;48.768;9.184;2023-07-20T02:26:46;20.80;93.80
27741;DHT22;15134;48.768;9.184;2023-07-20T02:29:12;20.70;93.90
27741;DHT22;15134;48.768;9.184;2023-07-20T02:31:38;20.70;93.90
27741;DHT22;15134;48.768;9.184;2023-07-20T02:34:06;20.70;93.90
27741;DHT22;15134;48.768;9.184;2023-07-20T02:36:32;20.70;94.00
27741;DHT22;15134;48.768;9.184;2023-07-20T02:39:01;20.60;94.10
27741;DHT22;15134;48.768;9.184;2023-07-20T02:41:30;20.60;94.40
27741;DHT22;15134;48.768;9.184;2023-07-20T02:43:56;20.60;94.30
27741;DHT22;15134;48.768;9.184;2023-07-20T02:46:22;20.50;94.30
27741;DHT22;15134;48.768;9.184;2023-07-20T02:48:48;20.50;94.40
27741;DHT22;15134;48.768;9.184;2023-07-20T02:51:13;20.40;94.60
27741;DHT22;15134;48.768;9.184;2023-07-20T02:53:39;20.30;94.80
27741;DHT22;15134;48.768;9.184;2023-07-20T02:56:05;20.40;95.00
27741;DHT22;15134;48.768;9.184;2023-07-20T02:58:30;20.40;94.90
27741;DHT22;15134;48.768;9.184;2023-07-20T03:00:56;20.30;94.90
27741;DHT22;15134;48.768;9.184;2023-07-20T03:03:22;20.30;94.90
27741;DHT22;15134;48.768;9.184;2023-07-20T03:05:48;20.30;95.00
27741;DHT22;15134;48.768;9.184;2023-07-20T03:08:20;20.30;94.90
27741;DHT22;15134;48.768;9.184;2023-07-20T03:10:45;20.20;95.10
27741;DHT22;15134;48.768;9.184;2023-07-20T03:13:11;20.20;95.20
27741;DHT22;15134;48.768;9.184;2023-07-20T03:15:38;20.10;95.30
27741;DHT22;15134;48.768;9.184;2023-07-20T03:18:04;20.10;95.40
27741;DHT22;15134;48.768;9.184;2023-07-20T03:20:30;20.10;95.40
27741;DHT22;15134;48.768;9.184;2023-07-20T03:22:56;20.10;95.40
27741;DHT22;15134;48.768;9.184;2023-07-20T03:25:22;20.10;95.50
27741;DHT22;15134;48.768;9.184;2023-07-20T03:27:48;20.00;95.60
27741;DHT22;15134;48.768;9.184;2023-07-20T03:30:14;20.00;95.70
27741;DHT22;15134;48.768;9.184;2023-07-20T03:32:40;20.00;95.80
27741;DHT22;15134;48.768;9.184;2023-07-20T03:35:06;19.90;95.80
27741;DHT22;15134;48.768;9.184;2023-07-20T03:37:32;19.90;96.00
27741;DHT22;15134;48.768;9.184;2023-07-20T03:40:00;19.90;96.10
27741;DHT22;15134;48.768;9.184;2023-07-20T03:42:26;19.90;96.20
27741;DHT22;15134;48.768;9.184;2023-07-20T03:44:52;19.90;96.30
27741;DHT22;15134;48.768;9.184;2023-07-20T03:47:18;19.80;96.30
27741;DHT22;15134;48.768;9.184;2023-07-20T03:49:43;19.80;96.40
27741;DHT22;15134;48.768;9.184;2023-07-20T03:52:10;19.80;96.50
27741;DHT22;15134;48.768;9.184;2023-07-20T03:54:35;19.80;96.50
27741;DHT22;15134;48.768;9.184;2023-07-20T03:57:01;19.80;96.70
27741;DHT22;15134;48.768;9.184;2023-07-20T03:59:27;19.90;96.70
27741;DHT22;15134;48.768;9.184;2023-07-20T04:01:53;20.00;96.70
27741;DHT22;15134;48.768;9.184;2023-07-20T04:04:18;20.00;96.60
27741;DHT22;15134;48.768;9.184;2023-07-20T04:06:44;20.10;96.70
27741;DHT22;15134;48.768;9.184;2023-07-20T04:09:11;20.10;96.50
27741;DHT22;15134;48.768;9.184;2023-07-20T04:11:37;20.20;96.40
27741;DHT22;15134;48.768;9.184;2023-07-20T04:14:04;20.20;96.50
27741;DHT22;15134;48.768;9.184;2023-07-20T04:16:30;20.20;96.50
27741;DHT22;15134;48.768;9.184;2023-07-20T04:18:56;20.20;96.40
27741;DHT22;15134;48.768;9.184;2023-07-20T04:21:23;20.20;96.70
27741;DHT22;15134;48.768;9.184;2023-07-20T04:23:48;20.30;96.60
27741;DHT22;15134;48.768;9.184;2023-07-20T04:26:14;20.30;96.60
27741;DHT22;15134;48.768;9.184;2023-07-20T04:28:41;20.30;96.50
27741;DHT22;15134;48.768;9.184;2023-07-20T04:31:14;20.30;96.40
27741;DHT22;15134;48.768;9.184;2023-07-20T04:33:40;20.30;96.50
27741;DHT22;15134;48.768;9.184;2023-07-20T04:36:06;20.40;96.50
27741;DHT22;15134;48.768;9.184;2023-07-20T04:38:34;20.40;96.50
27741;DHT22;15134;48.768;9.184;2023-07-20T04:41:17;20.50;96.50
27741;DHT22;15134;48.768;9.184;2023-07-20T04:43:45;20.60;96.40
27741;DHT22;15134;48.768;9.184;2023-07-20T04:46:14;20.70;96.60
27741;DHT22;15134;48.768;9.184;2023-07-20T04:48:40;20.80;96.50
27741;DHT22;15134;48.768;9.184;2023-07-20T04:51:06;20.90;96.60
27741;DHT22;15134;48.768;9.184;2023-07-20T04:53:32;21.00;96.50
27741;DHT22;15134;48.768;9.184;2023-07-20T04:55:58;21.20;96.40
27741;DHT22;15134;48.768;9.184;2023-07-20T04:58:24;21.40;96.10
27741;DHT22;15134;48.768;9.184;2023-07-20T05:00:52;21.40;95.80
27741;DHT22;15134;48.768;9.184;2023-07-20T05:03:19;21.60;95.80
27741;DHT22;15134;48.768;9.184;2023-07-20T05:05:46;21.80;95.50
27741;DHT22;15134;48.768;9.184;2023-07-20T05:08:12;22.00;95.40
27741;DHT22;15134;48.768;9.184;2023-07-20T05:10:38;22.30;95.10
27741;DHT22;15134;48.768;9.184;2023-07-20T05:13:04;22.60;94.70
27741;DHT22;15134;48.768;9.184;2023-07-20T05:15:32;22.80;94.70
27741;DHT22;15134;48.768;9.184;2023-07-20T05:17:58;22.90;94.10
27741;DHT22;15134;48.768;9.184;2023-07-20T05:20:24;23.20;93.90
27741;DHT22;15134;48.768;9.184;2023-07-20T05:22:50;23.30;93.70
27741;DHT22;15134;48.768;9.184;2023-07-20T05:25:16;23.30;93.60
27741;DHT22;15134;48.768;9.184;2023-07-20T05:27:44;23.40;93.40
27741;DHT22;15134;48.768;9.184;2023-07-20T05:30:11;23.40;93.30
27741;DHT22;15134;48.768;9.184;2023-07-20T05:32:36;23.40;93.30
27741;DHT22;15134;48.768;9.184;2023-07-20T05:35:02;23.30;93.60
27741;DHT22;15134;48.768;9.184;2023-07-20T05:37:28;23.30;93.40
27741;DHT22;15134;48.768;9.184;2023-07-20T05:39:54;23.20;93.70
27741;DHT22;15134;48.768;9.184;2023-07-20T05:42:19;23.20;93.70
27741;DHT22;15134;48.768;9.184;2023-07-20T05:44:45;23.10;93.90
27741;DHT22;15134;48.768;9.184;2023-07-20T05:47:12;23.30;93.70
27741;DHT22;15134;48.768;9.184;2023-07-20T05:49:38;23.40;93.70
27741;DHT22;15134;48.768;9.184;2023-07-20T05:52:04;23.50;93.70
27741;DHT22;15134;48.768;9.184;2023-07-20T05:54:30;23.70;93.40
27741;DHT22;15134;48.768;9.184;2023-07-20T05:56:55;23.80;93.20
27741;DHT22;15134;48.768;9.184;2023-07-20T05:59:21;23.90;93.30
27741;DHT22;15134;48.768;9.184;2023-07-20T06:01:49;24.00;93.20
27741;DHT22;15134;48.768;9.184;2023-07-20T06:04:15;24.10;93.20
27741;DHT22;15134;48.768;9.184;2023-07-20T06:06:42;24.20;93.00
27741;DHT22;15134;48.768;9.184;2023-07-20T06:09:07;24.10;92.50
27741;DHT22;15134;48.768;9.184;2023-07-20T06:11:38;24.20;92.60
27741;DHT22;15134;48.768;9.184;2023-07-20T06:14:04;24.20;92.60
27741;DHT22;15134;48.768;9.184;2023-07-20T06:16:30;24.40;92.50
27741;DHT22;15134;48.768;9.184;2023-07-20T06:18:55;24.50;92.50
27741;DHT22;15134;48.768;9.184;2023-07-20T06:21:21;24.90;92.00
27741;DHT22;15134;48.768;9.184;2023-07-20T06:23:47;24.90;91.80
27741;DHT22;15134;48.768;9.184;2023-07-20T06:26:16;25.00;92.30
27741;DHT22;15134;48.768;9.184;2023-07-20T06:28:41;25.20;91.80
27741;DHT22;15134;48.768;9.184;2023-07-20T06:31:07;25.30;91.60
27741;DHT22;15134;48.768;9.184;2023-07-20T06:33:33;25.70;91.40
27741;DHT22;15134;48.768;9.184;2023-07-20T06:36:00;26.90;90.90
27741;DHT22;15134;48.768;9.184;2023-07-20T06:38:26;27.90;88.60
27741;DHT22;15134;48.768;9.184;2023-07-20T06:40:52;28.40;86.40
27741;DHT22;15134;48.768;9.184;2023-07-20T06:43:18;29.40;84.90
27741;DHT22;15134;48.768;9.184;2023-07-20T06:45:43;30.50;82.60
27741;DHT22;15134;48.768;9.184;2023-07-20T06:48:09;31.50;80.70
27741;DHT22;15134;48.768;9.184;2023-07-20T06:50:35;32.50;77.40
27741;DHT22;15134;48.768;9.184;2023-07-20T06:53:02;33.20;75.80
27741;DHT22;15134;48.768;9.184;2023-07-20T06:55:31;34.20;73.70
27741;DHT22;15134;48.768;9.184;2023-07-20T06:57:56;35.30;71.60
27741;DHT22;15134;48.768;9.184;2023-07-20T07:00:22;36.20;69.80
27741;DHT22;15134;48.768;9.184;2023-07-20T07:02:48;37.20;68.00
27741;DHT22;15134;48.768;9.184;2023-07-20T07:05:13;37.20;66.50
27741;DHT22;15134;48.768;9.184;2023-07-20T07:07:41;36.90;65.70
27741;DHT22;15134;48.768;9.184;2023-07-20T07:10:07;36.60;66.10
27741;DHT22;15134;48.768;9.184;2023-07-20T07:12:34;36.90;66.10
27741;DHT22;15134;48.768;9.184;2023-07-20T07:15:04;37.60;65.00
27741;DHT22;15134;48.768;9.184;2023-07-20T07:17:33;38.40;63.70
27741;DHT22;15134;48.768;9.184;2023-07-20T07:19:58;39.10;62.20
27741;DHT22;15134;48.768;9.184;2023-07-20T07:22:24;39.50;61.10
27741;DHT22;15134;48.768;9.184;2023-07-20T07:24:51;39.80;60.10
27741;DHT22;15134;48.768;9.184;2023-07-20T07:27:16;40.30;60.00
27741;DHT22;15134;48.768;9.184;2023-07-20T07:29:43;40.80;59.40
27741;DHT22;15134;48.768;9.184;2023-07-20T07:32:12;41.30;58.40
27741;DHT22;15134;48.768;9.184;2023-07-20T07:34:38;41.90;57.90
27741;DHT22;15134;48.768;9.184;2023-07-20T07:37:04;42.30;57.00
27741;DHT22;15134;48.768;9.184;2023-07-20T07:39:31;42.70;56.10
27741;DHT22;15134;48.768;9.184;2023-07-20T07:41:57;43.00;56.00
27741;DHT22;15134;48.768;9.184;2023-07-20T07:44:23;43.50;55.60
27741;DHT22;15134;48.768;9.184;2023-07-20T07:46:52;43.90;54.90
27741;DHT22;15134;48.768;9.184;2023-07-20T07:49:18;44.20;54.40
27741;DHT22;15134;48.768;9.184;2023-07-20T07:51:45;44.30;53.80
27741;DHT22;15134;48.768;9.184;2023-07-20T07:54:10;43.70;54.40
27741;DHT22;15134;48.768;9.184;2023-07-20T07:56:36;43.80;53.20
27741;DHT22;15134;48.768;9.184;2023-07-20T07:59:02;44.00;53.50
27741;DHT22;15134;48.768;9.184;2023-07-20T08:01:29;44.40;53.00
27741;DHT22;15134;48.768;9.184;2023-07-20T08:03:58;42.80;53.40
27741;DHT22;15134;48.768;9.184;2023-07-20T08:06:23;41.60;54.10
27741;DHT22;15134;48.768;9.184;2023-07-20T08:08:50;41.70;54.60
27741;DHT22;15134;48.768;9.184;2023-07-20T08:11:16;41.90;54.40
27741;DHT22;15134;48.768;9.184;2023-07-20T08:13:43;42.40;53.50
27741;DHT22;15134;48.768;9.184;2023-07-20T08:16:09;41.80;53.60
27741;DHT22;15134;48.768;9.184;2023-07-20T08:18:35;40.60;53.60
27741;DHT22;15134;48.768;9.184;2023-07-20T08:21:01;40.20;54.80
27741;DHT22;15134;48.768;9.184;2023-07-20T08:23:29;40.80;54.70
27741;DHT22;15134;48.768;9.184;2023-07-20T08:25:54;40.00;54.70
27741;DHT22;15134;48.768;9.184;2023-07-20T08:28:24;39.00;56.00
27741;DHT22;15134;48.768;9.184;2023-07-20T08:30:52;39.30;56.10
27741;DHT22;15134;48.768;9.184;2023-07-20T08:33:18;38.10;56.30
27741;DHT22;15134;48.768;9.184;2023-07-20T08:35:48;36.90;57.10
27741;DHT22;15134;48.768;9.184;2023-07-20T08:38:15;35.80;58.70
27741;DHT22;15134;48.768;9.184;2023-07-20T08:40:43;36.10;58.80
27741;DHT22;15134;48.768;9.184;2023-07-20T08:43:13;35.00;59.40
27741;DHT22;15134;48.768;9.184;2023-07-20T08:45:40;35.20;60.00
27741;DHT22;15134;48.768;9.184;2023-07-20T08:48:07;36.40;59.20
27741;DHT22;15134;48.768;9.184;2023-07-20T08:50:34;35.60;58.50
27741;DHT22;15134;48.768;9.184;2023-07-20T08:53:01;34.30;59.10
27741;DHT22;15134;48.768;9.184;2023-07-20T08:55:27;32.70;62.00
27741;DHT22;15134;48.768;9.184;2023-07-20T08:57:58;31.40;65.00
27741;DHT22;15134;48.768;9.184;2023-07-20T09:00:25;30.30;67.00
27741;DHT22;15134;48.768;9.184;2023-07-20T09:02:52;29.50;69.90
27741;DHT22;15134;48.768;9.184;2023-07-20T09:05:20;29.40;74.50
27741;DHT22;15134;48.768;9.184;2023-07-20T09:07:46;31.60;70.50
27741;DHT22;15134;48.768;9.184;2023-07-20T09:10:12;33.90;73.40
27741;DHT22;15134;48.768;9.184;2023-07-20T09:12:39;36.00;65.30
27741;DHT22;15134;48.768;9.184;2023-07-20T09:15:06;37.50;59.70
27741;DHT22;15134;48.768;9.184;2023-07-20T09:17:32;38.60;59.50
27741;DHT22;15134;48.768;9.184;2023-07-20T09:19:58;39.40;57.40
27741;DHT22;15134;48.768;9.184;2023-07-20T09:22:29;38.20;56.40
27741;DHT22;15134;48.768;9.184;2023-07-20T09:24:56;36.80;58.50
27741;DHT22;15134;48.768;9.184;2023-07-20T09:27:29;36.90;62.90
27741;DHT22;15134;48.768;9.184;2023-07-20T09:29:56;37.80;57.70
27741;DHT22;15134;48.768;9.184;2023-07-20T09:32:22;38.20;59.80
27741;DHT22;15134;48.768;9.184;2023-07-20T09:34:49;38.30;58.60
27741;DHT22;15134;48.768;9.184;2023-07-20T09:37:20;36.20;59.80
27741;DHT22;15134;48.768;9.184;2023-07-20T09:39:47;34.70;64.30
27741;DHT22;15134;48.768;9.184;2023-07-20T09:42:13;33.90;63.40
27741;DHT22;15134;48.768;9.184;2023-07-20T09:44:39;35.00;61.80
27741;DHT22;15134;48.768;9.184;2023-07-20T09:47:06;35.70;60.30
27741;DHT22;15134;48.768;9.184;2023-07-20T09:49:32;34.80;61.80
27741;DHT22;15134;48.768;9.184;2023-07-20T09:51:59;33.60;64.20
27741;DHT22;15134;48.768;9.184;2023-07-20T09:54:27;32.60;64.70
27741;DHT22;15134;48.768;9.184;2023-07-20T09:56:54;32.40;65.80
27741;DHT22;15134;48.768;9.184;2023-07-20T09:59:21;32.50;64.60
27741;DHT22;15134;48.768;9.184;2023-07-20T10:01:47;32.60;63.20
27741;DHT22;15134;48.768;9.184;2023-07-20T10:04:19;32.00;64.20
27741;DHT22;15134;48.768;9.184;2023-07-20T10:06:47;31.00;65.40
27741;DHT22;15134;48.768;9.184;2023-07-20T10:09:15;30.50;65.70
27741;DHT22;15134;48.768;9.184;2023-07-20T10:11:45;30.10;66.20
27741;DHT22;15134;48.768;9.184;2023-07-20T10:14:12;29.80;68.60
27741;DHT22;15134;48.768;9.184;2023-07-20T10:16:43;29.40;69.90
27741;DHT22;15134;48.768;9.184;2023-07-20T10:19:27;29.10;70.50
27741;DHT22;15134;48.768;9.184;2023-07-20T10:22:05;28.50;70.60
27741;DHT22;15134;48.768;9.184;2023-07-20T10:24:33;28.10;75.40
27741;DHT22;15134;48.768;9.184;2023-07-20T10:27:00;28.00;71.50
27741;DHT22;15134;48.768;9.184;2023-07-20T10:29:26;27.50;74.50
27741;DHT22;15134;48.768;9.184;2023-07-20T10:31:54;27.10;72.00
27741;DHT22;15134;48.768;9.184;2023-07-20T10:34:21;26.70;73.30
27741;DHT22;15134;48.768;9.184;2023-07-20T10:36:47;26.70;72.80
27741;DHT22;15134;48.768;9.184;2023-07-20T10:39:28;26.60;73.70
27741;DHT22;15134;48.768;9.184;2023-07-20T10:42:09;26.70;74.10
27741;DHT22;15134;48.768;9.184;2023-07-20T10:44:39;26.70;75.40
27741;DHT22;15134;48.768;9.184;2023-07-20T10:47:10;26.80;74.10
27741;DHT22;15134;48.768;9.184;2023-07-20T10:49:59;26.70;72.70
27741;DHT22;15134;48.768;9.184;2023-07-20T10:52:37;26.50;73.70
27741;DHT22;15134;48.768;9.184;2023-07-20T10:55:16;26.40;74.60
27741;DHT22;15134;48.768;9.184;2023-07-20T10:57:42;26.60;75.70
27741;DHT22;15134;48.768;9.184;2023-07-20T11:00:19;26.60;73.70
27741;DHT22;15134;48.768;9.184;2023-07-20T11:02:48;26.70;73.70
27741;DHT22;15134;48.768;9.184;2023-07-20T11:05:34;26.90;73.80
27741;DHT22;15134;48.768;9.184;2023-07-20T11:08:03;27.10;72.60
27741;DHT22;15134;48.768;9.184;2023-07-20T11:10:29;27.30;72.00
27741;DHT22;15134;48.768;9.184;2023-07-20T11:13:15;27.10;71.30
27741;DHT22;15134;48.768;9.184;2023-07-20T11:16:05;26.90;71.80
27741;DHT22;15134;48.768;9.184;2023-07-20T11:18:33;26.90;71.90
27741;DHT22;15134;48.768;9.184;2023-07-20T11:21:00;26.80;70.40
27741;DHT22;15134;48.768;9.184;2023-07-20T11:23:26;26.60;70.90
27741;DHT22;15134;48.768;9.184;2023-07-20T11:25:51;26.40;69.80
27741;DHT22;15134;48.768;9.184;2023-07-20T11:28:17;26.40;71.10
27741;DHT22;15134;48.768;9.184;2023-07-20T11:30:43;26.40;71.40
27741;DHT22;15134;48.768;9.184;2023-07-20T11:33:09;26.50;72.10
27741;DHT22;15134;48.768;9.184;2023-07-20T11:35:45;26.70;70.60
27741;DHT22;15134;48.768;9.184;2023-07-20T11:38:13;26.80;70.70
27741;DHT22;15134;48.768;9.184;2023-07-20T11:40:46;26.80;69.90
27741;DHT22;15134;48.768;9.184;2023-07-20T11:43:13;26.60;70.40
27741;DHT22;15134;48.768;9.184;2023-07-20T11:45:39;26.40;70.70
27741;DHT22;15134;48.768;9.184;2023-07-20T11:48:05;26.20;71.20
27741;DHT22;15134;48.768;9.184;2023-07-20T11:50:31;26.20;70.90
27741;DHT22;15134;48.768;9.184;2023-07-20T11:52:57;26.30;70.50
27741;DHT22;15134;48.768;9.184;2023-07-20T11:55:23;26.20;71.20
27741;DHT22;15134;48.768;9.184;2023-07-20T11:58:05;26.10;71.70
27741;DHT22;15134;48.768;9.184;2023-07-20T12:00:32;26.20;72.00
27741;DHT22;15134;48.768;9.184;2023-07-20T12:02:58;26.30;72.10
27741;DHT22;15134;48.768;9.184;2023-07-20T12:05:24;26.20;70.00
27741;DHT22;15134;48.768;9.184;2023-07-20T12:07:51;25.80;70.50
27741;DHT22;15134;48.768;9.184;2023-07-20T12:10:26;25.70;70.80
27741;DHT22;15134;48.768;9.184;2023-07-20T12:12:52;25.80;71.20
27741;DHT22;15134;48.768;9.184;2023-07-20T12:15:22;25.90;71.40
27741;DHT22;15134;48.768;9.184;2023-07-20T12:17:53;26.10;70.50
27741;DHT22;15134;48.768;9.184;2023-07-20T12:20:29;26.10;69.10
27741;DHT22;15134;48.768;9.184;2023-07-20T12:23:08;25.90;70.00
27741;DHT22;15134;48.768;9.184;2023-07-20T12:25:40;25.90;70.10
27741;DHT22;15134;48.768;9.184;2023-07-20T12:28:14;25.90;68.80
27741;DHT22;15134;48.768;9.184;2023-07-20T12:30:42;25.70;70.20
27741;DHT22;15134;48.768;9.184;2023-07-20T12:33:08;25.70;70.50
27741;DHT22;15134;48.768;9.184;2023-07-20T12:35:34;25.80;70.50
27741;DHT22;15134;48.768;9.184;2023-07-20T12:38:00;25.80;69.80
27741;DHT22;15134;48.768;9.184;2023-07-20T12:40:26;25.90;70.20
27741;DHT22;15134;48.768;9.184;2023-07-20T12:42:52;25.90;70.60
27741;DHT22;15134;48.768;9.184;2023-07-20T12:45:18;26.00;71.10
27741;DHT22;15134;48.768;9.184;2023-07-20T12:47:44;25.80;71.60
27741;DHT22;15134;48.768;9.184;2023-07-20T12:50:11;25.70;71.80
27741;DHT22;15134;48.768;9.184;2023-07-20T12:52:38;25.60;72.00
27741;DHT22;15134;48.768;9.184;2023-07-20T12:55:08;25.60;71.80
27741;DHT22;15134;48.768;9.184;2023-07-20T12:57:35;25.60;71.60
27741;DHT22;15134;48.768;9.184;2023-07-20T13:00:05;25.60;70.80
27741;DHT22;15134;48.768;9.184;2023-07-20T13:02:32;25.60;71.00
27741;DHT22;15134;48.768;9.184;2023-07-20T13:04:58;25.50;71.00
27741;DHT22;15134;48.768;9.184;2023-07-20T13:07:31;25.40;70.50
27741;DHT22;15134;48.768;9.184;2023-07-20T13:09:58;25.30;70.70
27741;DHT22;15134;48.768;9.184;2023-07-20T13:12:29;25.20;71.40
27741;DHT22;15134;48.768;9.184;2023-07-20T13:14:55;25.30;71.00
27741;DHT22;15134;48.768;9.184;2023-07-20T13:17:22;25.40;70.40
27741;DHT22;15134;48.768;9.184;2023-07-20T13:19:48;25.60;70.40
27741;DHT22;15134;48.768;9.184;2023-07-20T13:22:14;25.70;69.60
27741;DHT22;15134;48.768;9.184;2023-07-20T13:24:41;25.80;69.90
27741;DHT22;15134;48.768;9.184;2023-07-20T13:27:07;25.80;69.10
27741;DHT22;15134;48.768;9.184;2023-07-20T13:29:32;26.00;69.80
27741;DHT22;15134;48.768;9.184;2023-07-20T13:31:58;26.00;69.70
27741;DHT22;15134;48.768;9.184;2023-07-20T13:34:25;26.10;69.30
27741;DHT22;15134;48.768;9.184;2023-07-20T13:36:51;26.10;68.70
27741;DHT22;15134;48.768;9.184;2023-07-20T13:39:17;26.10;68.80
27741;DHT22;15134;48.768;9.184;2023-07-20T13:41:44;26.10;68.80
27741;DHT22;15134;48.768;9.184;2023-07-20T13:44:10;26.10;68.50
27741;DHT22;15134;48.768;9.184;2023-07-20T13:46:36;25.90;68.40
27741;DHT22;15134;48.768;9.184;2023-07-20T13:49:01;25.80;67.90
27741;DHT22;15134;48.768;9.184;2023-07-20T13:51:27;25.70;68.00
27741;DHT22;15134;48.768;9.184;2023-07-20T13:53:53;25.50;68.80
27741;DHT22;15134;48.768;9.184;2023-07-20T13:56:19;25.40;68.70
27741;DHT22;15134;48.768;9.184;2023-07-20T13:58:45;25.50;69.60
27741;DHT22;15134;48.768;9.184;2023-07-20T14:01:10;25.60;69.50
27741;DHT22;15134;48.768;9.184;2023-07-20T14:03:36;25.70;69.70
27741;DHT22;15134;48.768;9.184;2023-07-20T14:06:03;25.80;69.30
27741;DHT22;15134;48.768;9.184;2023-07-20T14:08:28;25.80;67.80
27741;DHT22;15134;48.768;9.184;2023-07-20T14:10:55;25.90;68.30
27741;DHT22;15134;48.768;9.184;2023-07-20T14:13:21;25.90;68.60
27741;DHT22;15134;48.768;9.184;2023-07-20T14:15:47;25.90;68.50
27741;DHT22;15134;48.768;9.184;2023-07-20T14:18:12;25.90;68.70
27741;DHT22;15134;48.768;9.184;2023-07-20T14:20:38;25.80;69.00
27741;DHT22;15134;48.768;9.184;2023-07-20T14:23:04;25.80;68.40
27741;DHT22;15134;48.768;9.184;2023-07-20T14:25:29;25.80;68.10
27741;DHT22;15134;48.768;9.184;2023-07-20T14:27:55;25.90;67.70
27741;DHT22;15134;48.768;9.184;2023-07-20T14:30:21;25.80;67.60
27741;DHT22;15134;48.768;9.184;2023-07-20T14:32:46;25.90;67.30
27741;DHT22;15134;48.768;9.184;2023-07-20T14:35:12;25.90;67.50
27741;DHT22;15134;48.768;9.184;2023-07-20T14:37:38;26.00;67.80
27741;DHT22;15134;48.768;9.184;2023-07-20T14:40:04;26.00;68.10
27741;DHT22;15134;48.768;9.184;2023-07-20T14:42:30;26.00;68.10
27741;DHT22;15134;48.768;9.184;2023-07-20T14:44:58;26.00;66.70
27741;DHT22;15134;48.768;9.184;2023-07-20T14:47:23;25.90;66.80
27741;DHT22;15134;48.768;9.184;2023-07-20T14:49:49;25.90;66.60
27741;DHT22;15134;48.768;9.184;2023-07-20T14:52:15;25.90;66.70
27741;DHT22;15134;48.768;9.184;2023-07-20T14:54:41;25.90;67.80
27741;DHT22;15134;48.768;9.184;2023-07-20T14:57:06;25.90;67.00
27741;DHT22;15134;48.768;9.184;2023-07-20T14:59:39;25.90;67.10
27741;DHT22;15134;48.768;9.184;2023-07-20T15:02:07;25.80;66.30
27741;DHT22;15134;48.768;9.184;2023-07-20T15:04:33;25.80;66.30
27741;DHT22;15134;48.768;9.184;2023-07-20T15:06:59;25.60;66.70
27741;DHT22;15134;48.768;9.184;2023-07-20T15:09:25;25.60;66.10
27741;DHT22;15134;48.768;9.184;2023-07-20T15:11:51;25.60;67.20
27741;DHT22;15134;48.768;9.184;2023-07-20T15:14:16;25.70;67.20
27741;DHT22;15134;48.768;9.184;2023-07-20T15:16:42;25.70;66.60
27741;DHT22;15134;48.768;9.184;2023-07-20T15:19:09;25.80;66.90
27741;DHT22;15134;48.768;9.184;2023-07-20T15:21:35;25.80;67.00
27741;DHT22;15134;48.768;9.184;2023-07-20T15:24:00;25.90;67.30
27741;DHT22;15134;48.768;9.184;2023-07-20T15:26:26;25.80;66.60
27741;DHT22;15134;48.768;9.184;2023-07-20T15:28:52;25.80;67.50
27741;DHT22;15134;48.768;9.184;2023-07-20T15:31:18;25.70;67.50
27741;DHT22;15134;48.768;9.184;2023-07-20T15:33:43;25.70;67.70